createdAt,value
2022-08-03T00:01:36.721Z,21.08
2022-08-03T00:04:04.968Z,21.17
2022-08-03T00:06:36.775Z,23.85
2022-08-03T00:09:05.150Z,27.30
2022-08-03T00:11:32.004Z,29.58
2022-08-03T00:13:58.810Z,22.98
2022-08-03T00:16:26.503Z,21.15
2022-08-03T00:18:53.643Z,26.60
2022-08-03T00:21:20.393Z,16.40
2022-08-03T00:23:51.936Z,18.70
2022-08-03T00:26:21.120Z,25.75
2022-08-03T00:28:48.543Z,19.50
2022-08-03T00:31:15.451Z,24.23
2022-08-03T00:33:58.782Z,23.67
2022-08-03T00:36:27.453Z,21.40
2022-08-03T00:38:55.081Z,19.42
2022-08-03T00:41:22.132Z,19.38
2022-08-03T00:43:49.038Z,19.75
2022-08-03T00:46:20.786Z,23.00
2022-08-03T00:48:50.090Z,22.23
2022-08-03T00:51:17.132Z,20.70
2022-08-03T00:53:44.035Z,22.40
2022-08-03T00:56:14.625Z,18.55
2022-08-03T00:58:43.911Z,22.80
2022-08-03T01:01:12.476Z,21.92
2022-08-03T01:03:40.043Z,20.83
2022-08-03T01:06:19.043Z,19.60
2022-08-03T01:09:04.666Z,24.98
2022-08-03T01:12:00.287Z,19.50
2022-08-03T01:14:58.793Z,26.63
2022-08-03T01:18:06.077Z,21.55
2022-08-03T01:20:38.986Z,26.17
2022-08-03T01:23:29.061Z,25.95
2022-08-03T01:26:17.563Z,20.13
2022-08-03T01:29:21.637Z,18.17
2022-08-03T01:32:58.001Z,24.75
2022-08-03T01:34:55.515Z,22.70
2022-08-03T01:37:27.415Z,20.60
2022-08-03T01:39:58.484Z,18.50
2022-08-03T01:42:26.274Z,18.65
2022-08-03T01:44:55.864Z,24.00
2022-08-03T01:47:26.250Z,20.58
2022-08-03T01:49:54.599Z,22.10
2022-08-03T01:52:22.517Z,19.80
2022-08-03T01:54:51.715Z,22.25
2022-08-03T01:57:20.193Z,18.77
2022-08-03T01:59:49.829Z,20.35
2022-08-03T02:02:32.895Z,33.35
2022-08-03T02:05:03.519Z,24.48
2022-08-03T02:07:32.640Z,24.80
2022-08-03T02:10:01.326Z,22.33
2022-08-03T02:12:30.121Z,24.85
2022-08-03T02:14:57.893Z,19.85
2022-08-03T02:17:39.000Z,22.55
2022-08-03T02:20:08.796Z,22.15
2022-08-03T02:22:37.027Z,23.73
2022-08-03T02:25:04.087Z,25.50
2022-08-03T02:27:34.683Z,23.55
2022-08-03T02:30:10.637Z,24.17
2022-08-03T02:32:40.643Z,28.17
2022-08-03T02:35:13.405Z,28.67
2022-08-03T02:37:49.997Z,22.67
2022-08-03T02:40:19.270Z,21.05
2022-08-03T02:42:47.608Z,20.77
2022-08-03T02:45:17.054Z,21.30
2022-08-03T02:47:54.389Z,20.60
2022-08-03T02:50:23.286Z,16.30
2022-08-03T02:52:52.125Z,22.42
2022-08-03T02:55:21.374Z,17.08
2022-08-03T02:57:49.165Z,21.27
2022-08-03T03:00:19.678Z,22.13
2022-08-03T03:03:00.844Z,19.10
2022-08-03T03:05:53.146Z,20.25
2022-08-03T03:08:20.594Z,20.60
2022-08-03T03:10:53.171Z,23.23
2022-08-03T03:13:23.226Z,18.65
2022-08-03T03:15:51.077Z,23.70
2022-08-03T03:18:22.358Z,22.75
2022-08-03T03:20:51.777Z,22.60
2022-08-03T03:23:19.567Z,21.73
2022-08-03T03:25:47.000Z,22.70
2022-08-03T03:28:14.744Z,22.58
2022-08-03T03:30:42.063Z,22.33
2022-08-03T03:33:08.980Z,18.75
2022-08-03T03:35:37.212Z,26.52
2022-08-03T03:38:07.049Z,21.65
2022-08-03T03:40:36.044Z,22.40
2022-08-03T03:43:03.664Z,20.10
2022-08-03T03:45:31.457Z,21.15
2022-08-03T03:48:01.782Z,20.77
2022-08-03T03:50:30.235Z,20.75
2022-08-03T03:52:56.973Z,26.05
2022-08-03T03:55:24.026Z,25.52
2022-08-03T03:57:50.892Z,18.20
2022-08-03T04:00:19.325Z,24.70
2022-08-03T04:02:46.715Z,25.75
2022-08-03T04:05:34.100Z,27.48
2022-08-03T04:08:19.004Z,20.67
2022-08-03T04:11:27.460Z,26.48
2022-08-03T04:14:20.401Z,28.65
2022-08-03T04:16:52.009Z,27.65
2022-08-03T04:19:27.061Z,27.77
2022-08-03T04:22:00.458Z,20.90
2022-08-03T04:24:33.138Z,18.80
2022-08-03T04:27:02.941Z,24.23
2022-08-03T04:32:00.788Z,21.20
2022-08-03T04:34:29.897Z,22.23
2022-08-03T04:37:00.748Z,19.95
2022-08-03T04:39:31.335Z,25.63
2022-08-03T04:42:07.848Z,22.88
2022-08-03T04:44:42.952Z,18.05
2022-08-03T04:47:09.986Z,24.55
2022-08-03T04:49:38.542Z,24.25
2022-08-03T04:52:08.905Z,22.77
2022-08-03T04:54:48.843Z,24.10
2022-08-03T04:57:23.211Z,21.90
2022-08-03T05:00:02.594Z,27.08
2022-08-03T05:02:31.413Z,19.13
2022-08-03T05:04:58.721Z,22.52
2022-08-03T05:07:25.586Z,20.98
2022-08-03T05:09:57.540Z,26.48
2022-08-03T05:12:32.568Z,18.48
2022-08-03T05:15:00.540Z,24.38
2022-08-03T05:17:28.471Z,25.70
2022-08-03T05:19:55.880Z,18.33
2022-08-03T05:22:23.481Z,15.50
2022-08-03T05:24:50.427Z,19.65
2022-08-03T05:27:20.221Z,20.92
2022-08-03T05:32:14.543Z,20.77
2022-08-03T05:34:41.643Z,23.63
2022-08-03T05:37:09.586Z,19.02
2022-08-03T05:39:36.507Z,24.15
2022-08-03T05:42:03.458Z,19.92
2022-08-03T05:44:31.993Z,17.98
2022-08-03T05:46:59.543Z,22.58
2022-08-03T05:49:26.456Z,21.83
2022-08-03T05:52:07.974Z,16.67
2022-08-03T05:54:56.170Z,22.80
2022-08-03T05:57:25.447Z,23.30
2022-08-03T05:59:53.929Z,22.77
2022-08-03T06:02:26.165Z,18.15
2022-08-03T06:04:53.056Z,20.98
2022-08-03T06:07:19.885Z,17.50
2022-08-03T06:10:37.490Z,25.35
2022-08-03T06:12:36.328Z,23.05
2022-08-03T06:15:05.401Z,20.92
2022-08-03T06:17:37.359Z,22.48
2022-08-03T06:20:05.905Z,26.35
2022-08-03T06:22:32.649Z,25.58
2022-08-03T06:25:04.024Z,24.63
2022-08-03T06:27:37.306Z,22.80
2022-08-03T06:30:05.495Z,22.88
2022-08-03T06:32:32.503Z,27.65
2022-08-03T06:34:59.772Z,23.15
2022-08-03T06:37:27.282Z,25.52
2022-08-03T06:39:54.480Z,22.90
2022-08-03T06:42:22.677Z,27.23
2022-08-03T06:44:49.789Z,24.73
2022-08-03T06:47:16.607Z,24.33
2022-08-03T06:49:43.724Z,24.45
2022-08-03T06:52:38.083Z,27.02
2022-08-03T06:55:06.226Z,35.05
2022-08-03T06:57:33.397Z,33.83
2022-08-03T07:00:09.789Z,31.15
2022-08-03T07:02:38.733Z,35.72
2022-08-03T07:05:06.356Z,28.88
2022-08-03T07:07:33.138Z,30.67
2022-08-03T07:09:59.998Z,29.30
2022-08-03T07:12:30.106Z,34.70
2022-08-03T07:15:01.371Z,30.00
2022-08-03T07:17:31.142Z,27.25
2022-08-03T07:19:58.402Z,26.10
2022-08-03T07:22:25.339Z,28.10
2022-08-03T07:24:52.194Z,28.35
2022-08-03T07:27:19.014Z,35.95
2022-08-03T07:29:45.792Z,30.52
2022-08-03T07:32:12.633Z,31.75
2022-08-03T07:34:39.368Z,28.17
2022-08-03T07:37:06.238Z,34.72
2022-08-03T07:39:33.053Z,28.15
2022-08-03T07:41:59.836Z,32.92
2022-08-03T07:44:26.602Z,28.77
2022-08-03T07:46:53.539Z,30.77
2022-08-03T07:49:20.526Z,29.48
2022-08-03T07:52:07.918Z,26.05
2022-08-03T07:54:34.679Z,30.38
2022-08-03T07:57:01.498Z,26.23
2022-08-03T07:59:28.462Z,30.73
2022-08-03T08:02:15.385Z,29.02
2022-08-03T08:04:42.456Z,25.05
2022-08-03T08:07:09.305Z,37.30
2022-08-03T08:09:36.254Z,30.30
2022-08-03T08:12:03.387Z,24.00
2022-08-03T08:14:42.701Z,26.17
2022-08-03T08:17:09.496Z,26.35
2022-08-03T08:19:37.514Z,34.85
2022-08-03T08:22:10.638Z,31.23
2022-08-03T08:24:38.338Z,23.83
2022-08-03T08:27:06.310Z,30.35
2022-08-03T08:29:33.757Z,30.05
2022-08-03T08:32:01.628Z,26.85
2022-08-03T08:34:28.420Z,23.90
2022-08-03T08:37:02.382Z,25.83
2022-08-03T08:39:29.136Z,24.50
2022-08-03T08:41:55.905Z,25.63
2022-08-03T08:44:22.793Z,24.35
2022-08-03T08:46:50.839Z,23.65
2022-08-03T08:49:21.354Z,25.95
2022-08-03T08:52:00.429Z,30.60
2022-08-03T08:54:29.784Z,28.08
2022-08-03T08:57:01.493Z,30.15
2022-08-03T08:59:48.028Z,25.85
2022-08-03T09:02:15.834Z,30.83
2022-08-03T09:04:43.066Z,27.52
2022-08-03T09:07:19.619Z,28.40
2022-08-03T09:10:12.013Z,22.83
2022-08-03T09:12:44.075Z,30.98
2022-08-03T09:15:31.563Z,21.00
2022-08-03T09:18:03.075Z,28.85
2022-08-03T09:20:32.845Z,32.85
2022-08-03T09:26:00.079Z,23.67
2022-08-03T09:29:00.435Z,31.17
2022-08-03T09:31:36.639Z,29.73
2022-08-03T09:34:14.355Z,24.92
2022-08-03T09:36:45.102Z,34.55
2022-08-03T09:39:15.103Z,29.02
2022-08-03T09:41:48.586Z,28.95
2022-08-03T09:44:25.770Z,29.10
2022-08-03T09:46:56.449Z,28.73
2022-08-03T09:49:24.952Z,34.00
2022-08-03T09:52:32.045Z,37.92
2022-08-03T09:54:40.369Z,31.20
2022-08-03T09:57:07.190Z,27.85
2022-08-03T09:59:34.613Z,27.02
2022-08-03T10:02:02.106Z,26.98
2022-08-03T10:04:29.228Z,28.48
2022-08-03T10:07:04.151Z,28.17
2022-08-03T10:09:31.065Z,35.40
2022-08-03T10:12:00.052Z,34.25
2022-08-03T10:14:30.553Z,38.42
2022-08-03T10:16:57.305Z,27.90
2022-08-03T10:19:25.736Z,27.00
2022-08-03T10:21:58.130Z,25.95
2022-08-03T10:24:27.417Z,23.60
2022-08-03T10:27:01.589Z,26.98
2022-08-03T10:29:29.697Z,22.15
2022-08-03T10:31:59.104Z,26.20
2022-08-03T10:34:35.637Z,22.92
2022-08-03T10:37:08.514Z,26.00
2022-08-03T10:39:36.432Z,24.95
2022-08-03T10:42:05.778Z,33.20
2022-08-03T10:44:42.853Z,25.80
2022-08-03T10:47:10.680Z,23.35
2022-08-03T10:49:38.367Z,22.70
2022-08-03T10:52:13.865Z,27.88
2022-08-03T10:55:11.394Z,27.38
2022-08-03T10:57:46.528Z,22.92
2022-08-03T11:00:21.193Z,22.90
2022-08-03T11:03:14.782Z,25.13
2022-08-03T11:05:41.501Z,22.98
2022-08-03T11:08:29.031Z,28.50
2022-08-03T11:10:58.755Z,23.02
2022-08-03T11:16:01.610Z,16.58
2022-08-03T11:18:30.297Z,22.70
2022-08-03T11:20:59.872Z,19.77
2022-08-03T11:24:02.688Z,20.33
2022-08-03T11:26:34.137Z,17.13
2022-08-03T11:29:31.950Z,16.20
2022-08-03T11:31:59.111Z,15.85
2022-08-03T11:34:26.751Z,14.90
2022-08-03T11:37:24.090Z,16.75
2022-08-03T11:39:55.058Z,19.55
2022-08-03T11:42:24.919Z,16.58
2022-08-03T11:44:53.603Z,14.82
2022-08-03T11:47:26.061Z,14.65
2022-08-03T11:49:57.589Z,16.25
2022-08-03T11:52:27.110Z,13.35
2022-08-03T11:54:57.069Z,16.73
2022-08-03T11:59:19.290Z,17.58
2022-08-03T12:00:40.748Z,15.10
2022-08-03T12:03:11.964Z,21.80
2022-08-03T12:05:51.297Z,14.07
2022-08-03T12:08:39.744Z,15.70
2022-08-03T12:11:09.378Z,17.00
2022-08-03T12:16:37.186Z,17.52
2022-08-03T12:19:07.006Z,15.20
2022-08-03T12:21:34.073Z,17.77
2022-08-03T12:24:03.488Z,15.32
2022-08-03T12:26:43.534Z,15.73
2022-08-03T12:29:18.537Z,16.90
2022-08-03T12:31:45.747Z,17.30
2022-08-03T12:34:13.755Z,14.25
2022-08-03T12:36:56.285Z,15.02
2022-08-03T12:39:25.066Z,16.70
2022-08-03T12:41:55.775Z,15.68
2022-08-03T12:44:36.435Z,16.23
2022-08-03T12:47:04.646Z,14.27
2022-08-03T12:49:46.361Z,11.57
2022-08-03T12:52:13.356Z,12.38
2022-08-03T12:54:40.177Z,12.45
2022-08-03T12:57:15.706Z,11.00
2022-08-03T12:59:53.448Z,11.90
2022-08-03T13:02:26.258Z,11.48
2022-08-03T13:04:54.834Z,11.57
2022-08-03T13:07:22.973Z,10.45
2022-08-03T13:09:55.006Z,11.85
2022-08-03T13:12:30.037Z,12.20
2022-08-03T13:14:59.557Z,8.82
2022-08-03T13:19:53.869Z,8.60
2022-08-03T13:22:30.459Z,9.95
2022-08-03T13:24:57.805Z,8.63
2022-08-03T13:28:03.188Z,10.30
2022-08-03T13:30:13.007Z,10.45
2022-08-03T13:32:39.850Z,12.18
2022-08-03T13:35:08.016Z,9.43
2022-08-03T13:37:36.130Z,12.55
2022-08-03T13:40:06.602Z,9.10
2022-08-03T13:42:34.966Z,11.50
2022-08-03T13:45:02.986Z,16.00
2022-08-03T13:47:30.039Z,10.95
2022-08-03T13:50:01.151Z,9.45
2022-08-03T13:52:38.644Z,10.30
2022-08-03T13:55:07.067Z,9.73
2022-08-03T13:58:03.079Z,11.85
2022-08-03T14:00:29.302Z,11.43
2022-08-03T14:03:03.986Z,13.20
2022-08-03T14:05:33.168Z,12.70
2022-08-03T14:08:05.896Z,9.48
2022-08-03T14:10:37.845Z,10.40
2022-08-03T14:13:05.235Z,11.50
2022-08-03T14:15:37.424Z,11.35
2022-08-03T14:18:05.118Z,8.95
2022-08-03T14:20:38.897Z,10.68
2022-08-03T14:23:17.976Z,13.85
2022-08-03T14:25:51.629Z,11.48
2022-08-03T14:28:23.323Z,11.10
2022-08-03T14:30:57.285Z,12.57
2022-08-03T14:33:25.023Z,13.18
2022-08-03T14:35:52.478Z,12.48
2022-08-03T14:38:19.325Z,13.15
2022-08-03T14:40:46.795Z,12.00
2022-08-03T14:43:14.037Z,12.45
2022-08-03T14:45:41.362Z,13.40
2022-08-03T14:50:26.547Z,10.77
2022-08-03T14:50:56.895Z,12.32
2022-08-03T14:53:24.580Z,12.77
2022-08-03T14:55:52.956Z,14.63
2022-08-03T14:58:22.051Z,15.27
2022-08-03T15:00:50.830Z,11.48
2022-08-03T15:03:21.638Z,13.38
2022-08-03T15:05:48.570Z,13.15
2022-08-03T15:08:15.770Z,13.18
2022-08-03T15:10:44.860Z,13.20
2022-08-03T15:13:13.247Z,10.70
2022-08-03T15:15:41.132Z,13.60
2022-08-03T15:18:08.189Z,12.32
2022-08-03T15:20:50.773Z,12.18
2022-08-03T15:23:18.837Z,12.52
2022-08-03T15:26:29.292Z,12.02
2022-08-03T15:28:33.898Z,16.00
2022-08-03T15:31:01.885Z,14.50
2022-08-03T15:33:29.458Z,13.88
2022-08-03T15:35:57.193Z,15.80
2022-08-03T15:38:25.830Z,16.35
2022-08-03T15:40:57.147Z,14.27
2022-08-03T15:43:24.259Z,15.02
2022-08-03T15:46:19.167Z,12.52
2022-08-03T15:48:38.876Z,12.73
2022-08-03T15:51:06.254Z,19.80
2022-08-03T15:53:33.810Z,11.88
2022-08-03T15:56:03.354Z,13.73
2022-08-03T15:59:03.690Z,11.25
2022-08-03T16:01:21.552Z,11.95
2022-08-03T16:03:48.804Z,7.55
2022-08-03T16:06:16.035Z,5.53
2022-08-03T16:08:42.886Z,8.10
2022-08-03T16:11:09.890Z,10.88
2022-08-03T16:14:13.096Z,8.65
2022-08-03T16:16:23.692Z,7.35
2022-08-03T16:18:50.524Z,7.93
2022-08-03T16:21:19.340Z,7.43
2022-08-03T16:26:14.817Z,8.05
2022-08-03T16:28:41.658Z,6.55
2022-08-03T16:31:09.325Z,4.55
2022-08-03T16:33:36.616Z,10.27
2022-08-03T16:36:03.763Z,4.80
2022-08-03T16:38:30.774Z,8.07
2022-08-03T16:40:57.570Z,7.97
2022-08-03T16:43:24.923Z,7.22
2022-08-03T16:45:52.179Z,5.57
2022-08-03T16:48:19.918Z,7.85
2022-08-03T16:50:47.508Z,7.93
2022-08-03T16:53:16.552Z,8.85
2022-08-03T16:55:53.193Z,6.43
2022-08-03T16:58:41.344Z,4.57
2022-08-03T17:01:21.600Z,10.25
2022-08-03T17:04:01.972Z,7.45
2022-08-03T17:06:35.014Z,8.60
2022-08-03T17:09:08.834Z,5.28
2022-08-03T17:11:39.036Z,5.97
2022-08-03T17:14:12.112Z,4.10
2022-08-03T17:16:39.160Z,6.93
2022-08-03T17:19:20.520Z,7.30
2022-08-03T17:21:55.888Z,6.40
2022-08-03T17:24:27.839Z,6.80
2022-08-03T17:26:56.034Z,14.23
2022-08-03T17:29:25.192Z,7.15
2022-08-03T17:31:56.874Z,8.23
2022-08-03T17:34:26.495Z,7.40
2022-08-03T17:37:17.794Z,13.20
2022-08-03T17:39:58.225Z,14.90
2022-08-03T17:42:30.598Z,8.70
2022-08-03T17:45:02.296Z,11.60
2022-08-03T17:47:41.921Z,6.47
2022-08-03T17:50:25.302Z,9.15
2022-08-03T17:53:01.322Z,7.32
2022-08-03T17:55:57.371Z,7.72
2022-08-03T17:58:54.949Z,7.35
2022-08-03T18:02:06.094Z,7.57
2022-08-03T18:04:42.372Z,6.47
2022-08-03T18:07:12.905Z,10.93
2022-08-03T18:10:04.987Z,4.40
2022-08-03T18:12:51.895Z,9.30
2022-08-03T18:15:26.594Z,6.18
2022-08-03T18:18:01.989Z,6.93
2022-08-03T18:20:40.594Z,12.55
2022-08-03T18:23:10.395Z,7.55
2022-08-03T18:25:45.645Z,8.35
2022-08-03T18:28:16.449Z,8.57
2022-08-03T18:34:16.703Z,8.98
2022-08-03T18:36:29.465Z,15.32
2022-08-03T18:38:58.629Z,15.07
2022-08-03T18:41:33.323Z,11.10
2022-08-03T18:44:08.265Z,11.30
2022-08-03T18:46:50.012Z,8.65
2022-08-03T18:49:46.872Z,9.48
2022-08-03T18:52:40.221Z,9.07
2022-08-03T18:55:20.280Z,8.82
2022-08-03T18:58:15.901Z,14.25
2022-08-03T19:04:05.233Z,12.27
2022-08-03T19:06:36.181Z,14.35
2022-08-03T19:09:09.517Z,15.45
2022-08-03T19:12:13.105Z,7.85
2022-08-03T19:15:00.301Z,8.80
2022-08-03T19:17:33.572Z,7.22
2022-08-03T19:20:05.951Z,10.43
2022-08-03T19:22:34.440Z,9.98
2022-08-03T19:25:04.567Z,7.82
2022-08-03T19:27:35.453Z,8.32
2022-08-03T19:30:20.010Z,9.73
2022-08-03T19:32:54.159Z,14.20
2022-08-03T19:35:46.667Z,6.97
2022-08-03T19:38:09.150Z,10.75
2022-08-03T19:40:42.080Z,9.50
2022-08-03T19:43:26.637Z,13.10
2022-08-03T19:46:08.193Z,9.65
2022-08-03T19:48:37.778Z,8.82
2022-08-03T19:51:12.425Z,7.13
2022-08-03T19:53:43.183Z,7.95
2022-08-03T19:56:14.425Z,8.32
2022-08-03T19:58:43.385Z,16.77
2022-08-03T20:01:19.685Z,10.00
2022-08-03T20:03:49.730Z,14.98
2022-08-03T20:06:17.781Z,7.53
2022-08-03T20:08:44.946Z,7.35
2022-08-03T20:11:15.679Z,11.82
2022-08-03T20:13:48.358Z,7.25
2022-08-03T20:16:15.209Z,10.60
2022-08-03T20:18:42.920Z,9.43
2022-08-03T20:21:15.677Z,12.65
2022-08-03T20:24:01.630Z,13.65
2022-08-03T20:26:31.220Z,8.55
2022-08-03T20:29:09.077Z,16.55
2022-08-03T20:31:37.799Z,15.05
2022-08-03T20:34:06.408Z,12.63
2022-08-03T20:36:33.265Z,10.95
2022-08-03T20:39:00.206Z,16.17
2022-08-03T20:41:27.132Z,10.38
2022-08-03T20:43:54.515Z,12.20
2022-08-03T20:46:35.302Z,13.07
2022-08-03T20:49:08.653Z,12.23
2022-08-03T20:51:49.045Z,11.40
2022-08-03T20:54:28.790Z,13.55
2022-08-03T20:56:58.315Z,10.95
2022-08-03T20:59:36.928Z,6.85
2022-08-03T21:02:19.244Z,11.05
2022-08-03T21:04:47.437Z,10.25
2022-08-03T21:07:22.956Z,14.05
2022-08-03T21:09:57.163Z,12.52
2022-08-03T21:12:54.426Z,8.95
2022-08-03T21:13:01.160Z,6.00
2022-08-03T21:16:06.919Z,14.07
2022-08-03T21:18:18.386Z,17.45
2022-08-03T21:20:46.587Z,9.43
2022-08-03T21:23:40.285Z,11.40
2022-08-03T21:26:01.290Z,14.30
2022-08-03T21:28:28.222Z,12.52
2022-08-03T21:30:55.068Z,8.85
2022-08-03T21:33:26.809Z,12.35
2022-08-03T21:35:53.911Z,9.65
2022-08-03T21:38:20.961Z,14.77
2022-08-03T21:40:57.995Z,7.22
2022-08-03T21:43:24.757Z,12.95
2022-08-03T21:46:12.299Z,19.63
2022-08-03T21:48:41.554Z,8.43
2022-08-03T21:51:12.348Z,10.10
2022-08-03T21:54:03.257Z,8.32
2022-08-03T21:56:30.696Z,13.73
2022-08-03T21:59:04.789Z,10.18
2022-08-03T22:01:35.552Z,7.97
2022-08-03T22:04:07.080Z,9.07
2022-08-03T22:06:35.072Z,18.55
2022-08-03T22:09:01.917Z,13.63
2022-08-03T22:11:29.359Z,12.27
2022-08-03T22:13:56.193Z,14.07
2022-08-03T22:16:23.206Z,8.50
2022-08-03T22:18:49.998Z,13.80
2022-08-03T22:21:27.783Z,7.75
2022-08-03T22:24:06.131Z,14.90
2022-08-03T22:26:35.882Z,13.82
2022-08-03T22:29:08.062Z,15.20
2022-08-03T22:31:57.996Z,9.30
2022-08-03T22:34:26.767Z,9.20
2022-08-03T22:37:01.009Z,8.35
2022-08-03T22:39:29.481Z,10.43
2022-08-03T22:42:00.165Z,7.47
2022-08-03T22:44:27.908Z,5.95
2022-08-03T22:46:55.803Z,12.07
2022-08-03T22:49:23.122Z,10.90
2022-08-03T22:51:52.428Z,15.15
2022-08-03T22:54:19.744Z,10.60
2022-08-03T22:56:47.301Z,10.02
2022-08-03T22:59:40.048Z,13.43
2022-08-03T23:02:15.164Z,16.50
2022-08-03T23:04:55.360Z,8.52
2022-08-03T23:07:30.509Z,10.55
2022-08-03T23:09:58.639Z,11.27
2022-08-03T23:12:25.528Z,10.60
2022-08-03T23:14:55.565Z,18.30
2022-08-03T23:17:23.976Z,8.18
2022-08-03T23:19:52.865Z,7.68
2022-08-03T23:22:30.370Z,10.70
2022-08-03T23:24:59.084Z,12.07
2022-08-03T23:27:28.016Z,6.68
2022-08-03T23:29:58.379Z,10.30
2022-08-03T23:32:30.709Z,12.30
2022-08-03T23:35:19.186Z,5.90
2022-08-03T23:38:04.257Z,11.95
2022-08-03T23:40:34.923Z,11.98
2022-08-03T23:43:02.781Z,10.13
2022-08-03T23:45:34.679Z,16.58
2022-08-03T23:48:01.503Z,12.20
2022-08-03T23:50:35.217Z,11.40
2022-08-03T23:53:39.903Z,10.60
2022-08-03T23:56:19.676Z,8.85
2022-08-03T23:59:27.905Z,10.00
